Terminal Aerodrome Forecast
Issued by NWS Amarillo, TX

Home | Current Version | Previous Version | Text Only | Print | Product List | Glossary On
Versions: 1 2 3 4 5 6 7 8 9 10 11 12 13 14 15
000
FTUS44 KAMA 071400 AAA
TAFDHT
TAF AMD
KDHT 071404Z 0714/0812 04015KT 1SM HZ OVC025
      TEMPO 0714/0718 3SM HZ OVC050
     FM071800 06011KT P6SM BKN060
     FM080200 10008KT 4SM BR OVC008=

USA.gov is the U.S. government's official web portal to all federal, state and local government web resources and services.